createdAt,value
2022-11-24T00:01:28.550Z,7.70
2022-11-24T00:03:31.065Z,7.53
2022-11-24T00:05:39.095Z,8.07
2022-11-24T00:07:41.584Z,8.88
2022-11-24T00:09:44.107Z,8.43
2022-11-24T00:11:46.543Z,7.63
2022-11-24T00:13:49.371Z,8.07
2022-11-24T00:16:03.698Z,7.85
2022-11-24T00:18:06.217Z,8.15
2022-11-24T00:20:10.229Z,7.15
2022-11-24T00:22:15.545Z,9.32
2022-11-24T00:24:18.037Z,8.23
2022-11-24T00:26:22.675Z,8.35
2022-11-24T00:28:25.073Z,8.15
2022-11-24T00:30:27.524Z,8.00
2022-11-24T00:32:30.197Z,7.05
2022-11-24T00:34:33.641Z,8.63
2022-11-24T00:36:37.162Z,7.63
2022-11-24T00:38:42.243Z,7.95
2022-11-24T00:40:44.649Z,8.02
2022-11-24T00:42:47.146Z,7.82
2022-11-24T00:44:49.592Z,7.55
2022-11-24T00:46:52.145Z,7.90
2022-11-24T00:48:55.063Z,7.60
2022-11-24T00:51:02.045Z,6.72
2022-11-24T00:53:04.597Z,7.78
2022-11-24T00:55:10.093Z,7.20
2022-11-24T00:57:12.512Z,7.13
2022-11-24T00:59:18.201Z,7.05
2022-11-24T01:01:22.572Z,7.18
2022-11-24T01:03:25.158Z,7.65
2022-11-24T01:05:27.593Z,7.35
2022-11-24T01:07:31.844Z,6.85
2022-11-24T01:09:34.323Z,7.13
2022-11-24T01:11:58.021Z,7.45
2022-11-24T01:14:00.409Z,7.18
2022-11-24T01:16:03.096Z,6.97
2022-11-24T01:18:06.133Z,6.68
2022-11-24T01:20:10.290Z,6.88
2022-11-24T01:22:12.669Z,7.22
2022-11-24T01:24:15.772Z,6.82
2022-11-24T01:26:20.532Z,7.10
2022-11-24T01:28:25.661Z,6.68
2022-11-24T01:30:28.093Z,7.05
2022-11-24T01:32:32.381Z,7.20
2022-11-24T01:36:37.366Z,7.72
2022-11-24T01:38:39.799Z,7.22
2022-11-24T01:40:42.199Z,7.18
2022-11-24T01:42:49.085Z,7.38
2022-11-24T01:45:31.157Z,6.90
2022-11-24T01:47:38.709Z,6.82
2022-11-24T01:49:46.224Z,7.05
2022-11-24T01:51:53.346Z,6.63
2022-11-24T01:54:00.921Z,7.60
2022-11-24T01:56:04.383Z,6.68
2022-11-24T01:58:11.203Z,7.10
2022-11-24T02:00:15.312Z,6.90
2022-11-24T02:02:23.096Z,6.68
2022-11-24T02:04:30.081Z,6.45
2022-11-24T02:06:35.803Z,6.40
2022-11-24T02:08:45.050Z,6.10
2022-11-24T02:10:48.506Z,5.72
2022-11-24T02:12:53.759Z,5.78
2022-11-24T02:14:56.856Z,5.50
2022-11-24T02:16:59.348Z,6.35
2022-11-24T02:19:11.327Z,6.25
2022-11-24T02:21:16.235Z,7.05
2022-11-24T02:23:24.340Z,5.93
2022-11-24T02:25:33.856Z,6.07
2022-11-24T02:27:38.983Z,5.95
2022-11-24T02:29:41.748Z,5.63
2022-11-24T02:31:48.194Z,6.18
2022-11-24T02:33:51.242Z,6.70
2022-11-24T02:35:53.977Z,6.05
2022-11-24T02:37:56.390Z,5.75
2022-11-24T02:39:58.841Z,4.90
2022-11-24T02:42:04.928Z,5.95
2022-11-24T02:44:10.202Z,5.57
2022-11-24T02:46:12.716Z,5.32
2022-11-24T02:48:16.016Z,5.97
2022-11-24T02:50:18.658Z,5.15
2022-11-24T02:52:21.067Z,5.82
2022-11-24T02:54:23.627Z,4.60
2022-11-24T02:56:26.765Z,5.55
2022-11-24T02:58:29.257Z,5.15
2022-11-24T03:00:34.293Z,4.45
2022-11-24T03:02:36.797Z,5.85
2022-11-24T03:04:39.266Z,4.97
2022-11-24T03:06:43.342Z,5.55
2022-11-24T03:08:46.570Z,5.10
2022-11-24T03:10:49.411Z,5.85
2022-11-24T03:12:51.852Z,5.13
2022-11-24T03:14:57.132Z,5.07
2022-11-24T03:17:02.147Z,4.90
2022-11-24T03:19:05.142Z,5.63
2022-11-24T03:21:07.650Z,5.00
2022-11-24T03:23:10.224Z,4.95
2022-11-24T03:25:12.623Z,4.90
2022-11-24T03:27:15.067Z,5.55
2022-11-24T03:29:17.662Z,5.47
2022-11-24T03:31:20.293Z,6.53
2022-11-24T03:33:25.363Z,5.07
2022-11-24T03:35:27.996Z,5.35
2022-11-24T03:37:30.494Z,5.30
2022-11-24T03:39:32.989Z,4.72
2022-11-24T03:41:35.465Z,5.00
2022-11-24T03:43:44.012Z,5.47
2022-11-24T03:45:47.015Z,5.82
2022-11-24T03:47:51.308Z,5.28
2022-11-24T03:49:56.271Z,5.72
2022-11-24T03:52:02.567Z,5.20
2022-11-24T03:54:08.202Z,4.70
2022-11-24T03:56:10.678Z,5.38
2022-11-24T03:58:13.097Z,5.13
2022-11-24T04:00:16.975Z,6.43
2022-11-24T04:02:19.574Z,5.25
2022-11-24T04:04:22.102Z,4.70
2022-11-24T04:06:27.262Z,5.38
2022-11-24T04:08:29.837Z,6.57
2022-11-24T04:10:36.459Z,5.25
2022-11-24T04:12:44.573Z,4.72
2022-11-24T04:14:46.975Z,5.00
2022-11-24T04:16:49.404Z,4.47
2022-11-24T04:18:53.180Z,4.65
2022-11-24T04:20:55.578Z,4.93
2022-11-24T04:23:00.635Z,5.10
2022-11-24T04:25:04.375Z,4.13
2022-11-24T04:27:06.652Z,5.28
2022-11-24T04:29:10.167Z,5.40
2022-11-24T04:31:12.502Z,5.55
2022-11-24T04:33:15.512Z,4.50
2022-11-24T04:35:18.220Z,4.35
2022-11-24T04:37:20.497Z,4.65
2022-11-24T04:39:28.114Z,4.88
2022-11-24T04:41:31.092Z,5.75
2022-11-24T04:43:39.146Z,4.88
2022-11-24T04:45:42.843Z,4.47
2022-11-24T04:47:45.105Z,4.75
2022-11-24T04:49:47.440Z,4.22
2022-11-24T04:51:50.116Z,4.35
2022-11-24T04:53:52.442Z,5.68
2022-11-24T04:55:57.363Z,4.68
2022-11-24T04:57:59.635Z,6.57
2022-11-24T05:00:01.905Z,4.82
2022-11-24T05:02:04.279Z,4.00
2022-11-24T05:04:06.645Z,4.30
2022-11-24T05:06:09.049Z,4.60
2022-11-24T05:08:11.331Z,4.72
2022-11-24T05:10:32.059Z,4.20
2022-11-24T05:12:39.551Z,3.40
2022-11-24T05:14:41.967Z,3.97
2022-11-24T05:16:44.313Z,4.13
2022-11-24T05:18:46.783Z,4.35
2022-11-24T05:20:49.714Z,4.30
2022-11-24T05:22:52.141Z,3.67
2022-11-24T05:24:54.415Z,4.10
2022-11-24T05:26:56.668Z,4.30
2022-11-24T05:29:01.668Z,4.85
2022-11-24T05:31:04.726Z,4.40
2022-11-24T05:33:09.020Z,4.70
2022-11-24T05:35:11.947Z,4.85
2022-11-24T05:37:14.312Z,4.55
2022-11-24T05:39:16.623Z,4.70
2022-11-24T05:41:18.901Z,4.28
2022-11-24T05:43:21.239Z,4.25
2022-11-24T05:45:26.197Z,4.03
2022-11-24T05:47:28.531Z,4.47
2022-11-24T05:49:30.859Z,4.90
2022-11-24T05:51:33.488Z,5.07
2022-11-24T05:53:36.049Z,4.85
2022-11-24T05:55:43.971Z,4.25
2022-11-24T05:57:46.378Z,3.70
2022-11-24T05:59:48.601Z,5.35
2022-11-24T06:01:53.749Z,4.35
2022-11-24T06:03:56.373Z,4.22
2022-11-24T06:05:58.805Z,4.78
2022-11-24T06:08:01.292Z,5.07
2022-11-24T06:10:05.028Z,4.47
2022-11-24T06:12:07.994Z,4.20
2022-11-24T06:14:11.713Z,5.25
2022-11-24T06:16:14.961Z,5.18
2022-11-24T06:18:19.940Z,4.15
2022-11-24T06:20:22.488Z,5.55
2022-11-24T06:22:24.823Z,4.35
2022-11-24T06:24:27.184Z,5.00
2022-11-24T06:26:29.530Z,5.13
2022-11-24T06:28:31.970Z,4.07
2022-11-24T06:30:34.327Z,4.50
2022-11-24T06:32:36.775Z,4.90
2022-11-24T06:34:41.999Z,4.40
2022-11-24T06:36:44.377Z,4.35
2022-11-24T06:38:46.756Z,5.13
2022-11-24T06:40:49.111Z,3.95
2022-11-24T06:42:52.366Z,4.50
2022-11-24T06:44:54.759Z,5.22
2022-11-24T06:47:00.156Z,4.57
2022-11-24T06:49:02.572Z,5.32
2022-11-24T06:51:14.879Z,4.43
2022-11-24T06:53:17.137Z,4.05
2022-11-24T06:55:19.422Z,4.25
2022-11-24T06:57:21.690Z,5.32
2022-11-24T06:59:24.231Z,5.63
2022-11-24T07:01:28.851Z,4.82
2022-11-24T07:03:31.246Z,4.50
2022-11-24T07:05:33.614Z,4.00
2022-11-24T07:07:38.677Z,4.18
2022-11-24T07:09:41.505Z,4.70
2022-11-24T07:12:04.906Z,4.45
2022-11-24T07:14:07.812Z,4.40
2022-11-24T07:16:13.211Z,4.63
2022-11-24T07:18:18.324Z,4.75
2022-11-24T07:20:20.720Z,4.57
2022-11-24T07:22:22.992Z,4.80
2022-11-24T07:24:27.844Z,5.20
2022-11-24T07:26:30.111Z,4.40
2022-11-24T07:28:32.913Z,4.93
2022-11-24T07:30:35.257Z,4.70
2022-11-24T07:32:37.564Z,4.63
2022-11-24T07:34:39.866Z,5.30
2022-11-24T07:36:42.814Z,4.82
2022-11-24T07:38:45.585Z,5.90
2022-11-24T07:40:50.533Z,4.35
2022-11-24T07:42:52.919Z,4.78
2022-11-24T07:44:55.254Z,4.78
2022-11-24T07:46:57.577Z,4.97
2022-11-24T07:48:59.874Z,4.07
2022-11-24T07:51:02.946Z,5.75
2022-11-24T07:53:05.308Z,4.50
2022-11-24T07:55:08.924Z,5.30
2022-11-24T07:57:13.871Z,4.78
2022-11-24T07:59:16.327Z,5.55
2022-11-24T08:01:18.975Z,4.97
2022-11-24T08:03:21.774Z,4.93
2022-11-24T08:05:24.141Z,4.75
2022-11-24T08:07:26.506Z,5.05
2022-11-24T08:09:28.806Z,6.18
2022-11-24T08:11:31.680Z,5.20
2022-11-24T08:13:37.200Z,5.32
2022-11-24T08:15:39.674Z,5.63
2022-11-24T08:17:42.792Z,6.57
2022-11-24T08:19:45.357Z,6.03
2022-11-24T08:21:47.884Z,5.20
2022-11-24T08:23:53.802Z,6.90
2022-11-24T08:25:57.226Z,5.15
2022-11-24T08:27:59.658Z,5.17
2022-11-24T08:30:05.517Z,5.57
2022-11-24T08:32:08.517Z,6.00
2022-11-24T08:34:12.117Z,5.65
2022-11-24T08:36:16.255Z,5.55
2022-11-24T08:38:18.741Z,6.05
2022-11-24T08:40:21.800Z,6.82
2022-11-24T08:42:24.079Z,5.60
2022-11-24T08:44:28.679Z,5.70
2022-11-24T08:46:33.589Z,5.65
2022-11-24T08:48:39.187Z,6.18
2022-11-24T08:50:41.594Z,5.68
2022-11-24T08:52:43.972Z,6.50
2022-11-24T08:54:46.886Z,5.80
2022-11-24T08:56:49.795Z,5.00
2022-11-24T08:58:53.114Z,5.78
2022-11-24T09:00:55.712Z,5.45
2022-11-24T09:03:00.709Z,5.18
2022-11-24T09:05:03.314Z,5.65
2022-11-24T09:07:05.676Z,5.20
2022-11-24T09:09:09.810Z,5.10
2022-11-24T09:11:13.774Z,4.93
2022-11-24T09:13:16.085Z,5.13
2022-11-24T09:15:20.395Z,4.20
2022-11-24T09:19:30.920Z,5.05
2022-11-24T09:21:37.776Z,4.50
2022-11-24T09:23:43.904Z,4.55
2022-11-24T09:25:49.345Z,3.85
2022-11-24T09:27:51.977Z,4.55
2022-11-24T09:29:54.277Z,3.88
2022-11-24T09:31:57.931Z,4.00
2022-11-24T09:34:04.564Z,4.00
2022-11-24T09:36:10.692Z,4.85
2022-11-24T09:38:13.553Z,4.20
2022-11-24T09:40:17.381Z,4.38
2022-11-24T09:42:32.861Z,4.28
2022-11-24T09:45:07.751Z,3.95
2022-11-24T09:47:18.958Z,4.75
2022-11-24T09:49:30.452Z,3.60
2022-11-24T09:51:37.235Z,3.95
2022-11-24T09:53:44.752Z,3.50
2022-11-24T09:55:49.837Z,3.78
2022-11-24T09:58:12.601Z,3.70
2022-11-24T10:00:16.078Z,3.65
2022-11-24T10:02:19.575Z,3.22
2022-11-24T10:04:25.493Z,3.55
2022-11-24T10:06:34.774Z,3.60
2022-11-24T10:09:02.390Z,3.78
2022-11-24T10:11:10.028Z,4.05
2022-11-24T10:13:25.226Z,2.88
2022-11-24T10:15:36.401Z,3.33
2022-11-24T10:17:52.742Z,3.58
2022-11-24T10:20:02.908Z,3.45
2022-11-24T10:22:19.983Z,4.30
2022-11-24T10:24:38.385Z,2.83
2022-11-24T10:26:47.091Z,2.80
2022-11-24T10:28:54.887Z,3.08
2022-11-24T10:31:12.725Z,3.70
2022-11-24T10:33:18.791Z,3.58
2022-11-24T10:35:23.065Z,3.00
2022-11-24T10:39:41.837Z,2.75
2022-11-24T10:41:52.671Z,3.35
2022-11-24T10:43:58.155Z,2.90
2022-11-24T10:46:11.066Z,2.97
2022-11-24T10:48:20.233Z,3.10
2022-11-24T10:50:24.236Z,3.00
2022-11-24T10:52:28.679Z,3.28
2022-11-24T10:54:31.395Z,2.90
2022-11-24T10:56:42.755Z,2.92
2022-11-24T10:58:45.165Z,2.75
2022-11-24T11:00:49.316Z,2.40
2022-11-24T11:03:10.338Z,3.00
2022-11-24T11:05:41.821Z,3.03
2022-11-24T11:07:44.454Z,3.15
2022-11-24T11:09:50.593Z,3.03
2022-11-24T11:11:55.626Z,2.70
2022-11-24T11:14:04.276Z,2.67
2022-11-24T11:16:24.513Z,2.83
2022-11-24T11:18:32.863Z,3.00
2022-11-24T11:20:36.734Z,2.95
2022-11-24T11:22:39.340Z,2.95
2022-11-24T11:24:44.317Z,2.90
2022-11-24T11:26:46.595Z,3.20
2022-11-24T11:31:26.668Z,2.88
2022-11-24T11:35:52.982Z,3.28
2022-11-24T11:37:58.783Z,2.67
2022-11-24T11:40:01.574Z,2.90
2022-11-24T11:42:37.925Z,2.80
2022-11-24T11:44:47.293Z,2.90
2022-11-24T11:46:49.771Z,4.35
2022-11-24T11:48:52.973Z,3.30
2022-11-24T11:51:22.318Z,3.38
2022-11-24T11:53:29.553Z,3.60
2022-11-24T11:55:49.474Z,3.70
2022-11-24T11:58:03.400Z,2.80
2022-11-24T12:00:14.013Z,2.70
2022-11-24T12:02:53.429Z,3.63
2022-11-24T12:04:59.623Z,3.63
2022-11-24T12:07:27.536Z,4.00
2022-11-24T12:09:44.425Z,3.33
2022-11-24T12:11:57.618Z,2.92
2022-11-24T12:14:16.336Z,3.88
2022-11-24T12:16:31.144Z,3.20
2022-11-24T12:18:57.761Z,3.60
2022-11-24T12:21:12.788Z,3.40
2022-11-24T12:23:26.683Z,2.80
2022-11-24T12:25:45.511Z,2.75
2022-11-24T12:27:53.965Z,3.35
2022-11-24T12:30:10.796Z,3.30
2022-11-24T12:32:30.792Z,2.40
2022-11-24T12:34:44.239Z,3.25
2022-11-24T12:37:03.697Z,3.75
2022-11-24T12:39:14.382Z,3.33
2022-11-24T12:41:41.846Z,3.70
2022-11-24T12:43:51.095Z,6.45
2022-11-24T12:46:00.582Z,2.72
2022-11-24T12:48:28.534Z,3.00
2022-11-24T12:50:35.544Z,2.78
2022-11-24T12:52:40.570Z,2.72
2022-11-24T12:54:43.040Z,3.50
2022-11-24T12:56:53.796Z,2.63
2022-11-24T12:59:03.033Z,2.63
2022-11-24T13:01:16.737Z,2.78
2022-11-24T13:03:36.338Z,2.63
2022-11-24T13:05:49.018Z,3.10
2022-11-24T13:07:57.749Z,2.67
2022-11-24T13:13:00.040Z,3.00
2022-11-24T13:15:43.333Z,3.22
2022-11-24T13:17:58.415Z,2.83
2022-11-24T13:20:23.031Z,2.80
2022-11-24T13:22:27.646Z,2.70
2022-11-24T13:24:34.906Z,3.22
2022-11-24T13:26:46.159Z,2.97
2022-11-24T13:29:06.157Z,3.53
2022-11-24T13:31:23.031Z,2.90
2022-11-24T13:33:33.984Z,3.13
2022-11-24T13:35:39.890Z,3.55
2022-11-24T13:37:51.533Z,3.00
2022-11-24T13:39:55.656Z,3.10
2022-11-24T13:42:01.055Z,3.33
2022-11-24T13:44:18.437Z,3.33
2022-11-24T13:47:07.334Z,2.67
2022-11-24T13:49:14.660Z,2.90
2022-11-24T13:51:23.897Z,2.90
2022-11-24T13:53:32.133Z,3.13
2022-11-24T13:55:42.983Z,2.90
2022-11-24T13:57:47.510Z,2.85
2022-11-24T13:59:50.079Z,2.97
2022-11-24T14:01:57.571Z,3.65
2022-11-24T14:06:41.423Z,3.22
2022-11-24T14:08:49.319Z,2.75
2022-11-24T14:10:52.606Z,2.85
2022-11-24T14:13:16.210Z,3.28
2022-11-24T14:15:23.589Z,2.45
2022-11-24T14:17:28.549Z,3.45
2022-11-24T14:19:32.382Z,3.10
2022-11-24T14:21:42.404Z,3.50
2022-11-24T14:23:48.287Z,2.95
2022-11-24T14:25:52.092Z,2.65
2022-11-24T14:27:54.484Z,2.92
2022-11-24T14:30:00.594Z,3.38
2022-11-24T14:32:04.959Z,4.13
2022-11-24T14:36:16.371Z,3.20
2022-11-24T14:38:21.385Z,2.92
2022-11-24T14:40:39.842Z,3.53
2022-11-24T14:42:50.605Z,3.38
2022-11-24T14:44:56.567Z,3.15
2022-11-24T14:47:07.124Z,3.20
2022-11-24T14:49:09.767Z,3.45
2022-11-24T14:51:16.183Z,3.03
2022-11-24T14:53:26.216Z,3.65
2022-11-24T14:55:30.578Z,3.58
2022-11-24T14:57:35.345Z,3.00
2022-11-24T14:59:38.384Z,3.55
2022-11-24T15:01:41.107Z,3.03
2022-11-24T15:04:09.823Z,3.40
2022-11-24T15:06:21.050Z,3.22
2022-11-24T15:08:27.701Z,3.92
2022-11-24T15:10:34.984Z,3.13
2022-11-24T15:12:40.000Z,3.80
2022-11-24T15:14:51.483Z,3.10
2022-11-24T15:16:53.992Z,4.13
2022-11-24T15:18:59.290Z,4.13
2022-11-24T15:21:02.290Z,4.35
2022-11-24T15:23:31.421Z,3.28
2022-11-24T15:25:34.692Z,3.85
2022-11-24T15:27:37.022Z,3.17
2022-11-24T15:29:39.349Z,3.50
2022-11-24T15:31:46.311Z,4.50
2022-11-24T15:33:51.588Z,3.58
2022-11-24T15:35:54.261Z,2.55
2022-11-24T15:37:56.772Z,3.42
2022-11-24T15:40:01.782Z,3.83
2022-11-24T15:42:04.269Z,3.55
2022-11-24T15:44:06.642Z,3.40
2022-11-24T15:46:10.126Z,4.00
2022-11-24T15:48:17.732Z,3.78
2022-11-24T15:50:21.555Z,3.83
2022-11-24T15:52:23.924Z,4.55
2022-11-24T15:54:27.774Z,3.55
2022-11-24T15:56:35.279Z,3.33
2022-11-24T15:58:37.754Z,3.35
2022-11-24T16:00:44.079Z,3.30
2022-11-24T16:02:46.900Z,3.72
2022-11-24T16:04:49.442Z,3.72
2022-11-24T16:06:51.967Z,4.05
2022-11-24T16:08:54.643Z,3.90
2022-11-24T16:10:57.125Z,5.10
2022-11-24T16:13:02.065Z,4.05
2022-11-24T16:15:06.350Z,4.28
2022-11-24T16:17:08.911Z,4.30
2022-11-24T16:19:12.317Z,3.97
2022-11-24T16:21:14.673Z,3.87
2022-11-24T16:23:17.217Z,4.88
2022-11-24T16:25:19.619Z,4.63
2022-11-24T16:27:22.912Z,4.20
2022-11-24T16:29:27.895Z,4.53
2022-11-24T16:31:30.366Z,4.85
2022-11-24T16:33:32.780Z,4.82
2022-11-24T16:35:35.188Z,3.85
2022-11-24T16:37:37.983Z,4.35
2022-11-24T16:39:41.838Z,4.68
2022-11-24T16:41:46.849Z,4.28
2022-11-24T16:43:49.253Z,4.68
2022-11-24T16:46:05.432Z,4.70
2022-11-24T16:48:07.766Z,4.50
2022-11-24T16:50:11.511Z,5.38
2022-11-24T16:52:13.939Z,4.32
2022-11-24T16:54:16.361Z,4.80
2022-11-24T16:56:18.982Z,4.20
2022-11-24T16:58:21.665Z,5.15
2022-11-24T17:00:24.142Z,4.65
2022-11-24T17:02:29.275Z,4.90
2022-11-24T17:04:31.680Z,5.68
2022-11-24T17:06:34.205Z,4.63
2022-11-24T17:08:38.144Z,4.72
2022-11-24T17:10:40.525Z,4.65
2022-11-24T17:12:43.594Z,5.35
2022-11-24T17:15:03.083Z,4.00
2022-11-24T17:17:08.425Z,4.75
2022-11-24T17:19:13.719Z,4.82
2022-11-24T17:21:18.266Z,4.63
2022-11-24T17:23:20.684Z,5.53
2022-11-24T17:25:22.975Z,4.93
2022-11-24T17:27:26.070Z,4.60
2022-11-24T17:29:30.138Z,6.30
2022-11-24T17:31:35.731Z,5.25
2022-11-24T17:33:38.324Z,5.70
2022-11-24T17:35:43.315Z,4.65
2022-11-24T17:37:45.698Z,5.07
2022-11-24T17:40:05.906Z,5.45
2022-11-24T17:42:10.378Z,5.05
2022-11-24T17:44:12.795Z,6.28
2022-11-24T17:46:15.103Z,4.55
2022-11-24T17:48:17.458Z,4.57
2022-11-24T17:50:25.174Z,5.85
2022-11-24T17:52:32.346Z,4.85
2022-11-24T17:54:49.995Z,4.57
2022-11-24T17:56:52.424Z,5.03
2022-11-24T17:58:56.266Z,4.40
2022-11-24T18:00:58.769Z,4.88
2022-11-24T18:03:01.483Z,5.07
2022-11-24T18:05:04.169Z,4.65
2022-11-24T18:07:06.567Z,4.40
2022-11-24T18:09:11.983Z,5.80
2022-11-24T18:11:16.400Z,5.25
2022-11-24T18:13:41.110Z,5.00
2022-11-24T18:15:41.229Z,4.85
2022-11-24T18:17:43.761Z,4.95
2022-11-24T18:19:46.097Z,4.65
2022-11-24T18:21:48.408Z,4.40
2022-11-24T18:23:51.366Z,4.72
2022-11-24T18:25:58.079Z,5.70
2022-11-24T18:28:01.239Z,4.50
2022-11-24T18:30:04.391Z,5.32
2022-11-24T18:32:06.812Z,6.05
2022-11-24T18:34:09.499Z,5.47
2022-11-24T18:36:14.196Z,5.70
2022-11-24T18:38:16.517Z,4.72
2022-11-24T18:40:19.030Z,4.93
2022-11-24T18:42:25.685Z,4.93
2022-11-24T18:44:27.987Z,4.90
2022-11-24T18:46:30.345Z,4.82
2022-11-24T18:48:32.888Z,4.75
2022-11-24T18:50:35.791Z,4.38
2022-11-24T18:52:38.059Z,4.53
2022-11-24T18:54:40.483Z,4.82
2022-11-24T18:56:42.929Z,4.45
2022-11-24T18:58:47.907Z,4.28
2022-11-24T19:00:50.378Z,4.68
2022-11-24T19:02:53.484Z,5.30
2022-11-24T19:04:55.964Z,5.10
2022-11-24T19:06:58.274Z,4.47
2022-11-24T19:09:03.545Z,4.32
2022-11-24T19:11:06.081Z,4.90
2022-11-24T19:13:08.515Z,4.20
2022-11-24T19:15:13.513Z,5.10
2022-11-24T19:17:15.948Z,5.28
2022-11-24T19:19:18.370Z,5.00
2022-11-24T19:21:21.393Z,5.28
2022-11-24T19:23:23.722Z,5.65
2022-11-24T19:25:26.185Z,4.50
2022-11-24T19:27:29.767Z,5.47
2022-11-24T19:29:32.879Z,4.18
2022-11-24T19:31:39.661Z,4.95
2022-11-24T19:33:42.816Z,5.18
2022-11-24T19:35:45.307Z,4.95
2022-11-24T19:37:47.746Z,5.15
2022-11-24T19:39:50.425Z,4.57
2022-11-24T19:41:53.309Z,4.78
2022-11-24T19:43:56.741Z,5.18
2022-11-24T19:46:02.100Z,4.83
2022-11-24T19:48:07.454Z,5.10
2022-11-24T19:50:11.327Z,4.50
2022-11-24T19:52:13.670Z,4.95
2022-11-24T19:54:17.185Z,5.45
2022-11-24T19:56:21.797Z,6.10
2022-11-24T19:58:24.227Z,5.70
2022-11-24T20:00:30.680Z,5.05
2022-11-24T20:02:34.495Z,4.90
2022-11-24T20:04:41.404Z,4.78
2022-11-24T20:06:47.122Z,5.43
2022-11-24T20:08:49.588Z,5.78
2022-11-24T20:10:51.975Z,4.53
2022-11-24T20:12:54.342Z,5.20
2022-11-24T20:14:56.813Z,5.72
2022-11-24T20:16:59.095Z,4.50
2022-11-24T20:19:05.772Z,5.10
2022-11-24T20:21:12.268Z,4.85
2022-11-24T20:23:14.610Z,4.78
2022-11-24T20:25:17.356Z,5.22
2022-11-24T20:27:19.700Z,5.38
2022-11-24T20:29:22.118Z,4.20
2022-11-24T20:31:27.563Z,4.85
2022-11-24T20:33:31.027Z,4.80
2022-11-24T20:35:33.506Z,4.30
2022-11-24T20:37:38.408Z,5.35
2022-11-24T20:39:41.161Z,5.28
2022-11-24T20:41:43.701Z,5.10
2022-11-24T20:43:47.197Z,5.15
2022-11-24T20:45:49.746Z,5.32
2022-11-24T20:47:52.197Z,5.15
2022-11-24T20:49:54.524Z,4.68
2022-11-24T20:51:57.518Z,4.90
2022-11-24T20:54:05.153Z,4.82
2022-11-24T20:56:09.274Z,4.72
2022-11-24T20:58:11.625Z,5.32
2022-11-24T21:00:14.606Z,4.50
2022-11-24T21:02:17.019Z,3.88
2022-11-24T21:04:21.512Z,4.40
2022-11-24T21:06:24.128Z,5.20
2022-11-24T21:08:26.628Z,5.03
2022-11-24T21:10:31.592Z,5.20
2022-11-24T21:12:33.977Z,5.18
2022-11-24T21:14:36.703Z,4.80
2022-11-24T21:16:41.597Z,4.20
2022-11-24T21:18:44.949Z,4.20
2022-11-24T21:20:47.672Z,3.78
2022-11-24T21:22:50.185Z,4.40
2022-11-24T21:24:52.747Z,5.07
2022-11-24T21:26:57.768Z,4.88
2022-11-24T21:29:00.161Z,4.68
2022-11-24T21:31:07.050Z,4.68
2022-11-24T21:33:10.263Z,4.43
2022-11-24T21:35:12.720Z,5.95
2022-11-24T21:37:18.423Z,4.43
2022-11-24T21:39:21.056Z,4.80
2022-11-24T21:41:24.736Z,4.07
2022-11-24T21:43:30.761Z,4.97
2022-11-24T21:45:35.125Z,4.40
2022-11-24T21:49:39.967Z,4.80
2022-11-24T21:51:42.397Z,3.80
2022-11-24T21:53:45.727Z,5.40
2022-11-24T21:55:54.616Z,4.35
2022-11-24T21:57:56.964Z,3.72
2022-11-24T22:00:01.907Z,3.80
2022-11-24T22:02:13.149Z,4.10
2022-11-24T22:04:16.050Z,4.20
2022-11-24T22:06:19.673Z,3.97
2022-11-24T22:08:22.207Z,4.68
2022-11-24T22:10:24.629Z,3.85
2022-11-24T22:12:26.940Z,3.90
2022-11-24T22:14:29.370Z,3.42
2022-11-24T22:16:36.188Z,4.25
2022-11-24T22:18:42.881Z,3.97
2022-11-24T22:20:54.307Z,3.47
2022-11-24T22:22:56.692Z,3.75
2022-11-24T22:24:59.087Z,5.80
2022-11-24T22:27:03.063Z,3.70
2022-11-24T22:29:06.191Z,3.90
2022-11-24T22:31:10.793Z,4.00
2022-11-24T22:33:16.877Z,4.50
2022-11-24T22:35:19.233Z,3.25
2022-11-24T22:37:21.492Z,3.53
2022-11-24T22:39:23.900Z,3.88
2022-11-24T22:41:26.340Z,4.05
2022-11-24T22:43:30.893Z,3.10
2022-11-24T22:45:35.562Z,4.15
2022-11-24T22:47:37.991Z,4.05
2022-11-24T22:49:43.011Z,3.63
2022-11-24T22:51:45.247Z,3.72
2022-11-24T22:53:48.876Z,4.00
2022-11-24T22:55:51.222Z,4.03
2022-11-24T22:57:56.984Z,3.25
2022-11-24T22:59:59.498Z,3.65
2022-11-24T23:02:02.781Z,4.32
2022-11-24T23:04:05.375Z,4.40
2022-11-24T23:06:12.541Z,3.53
2022-11-24T23:08:14.879Z,4.50
2022-11-24T23:10:17.573Z,3.80
2022-11-24T23:12:20.030Z,3.63
2022-11-24T23:14:22.342Z,3.95
2022-11-24T23:16:25.120Z,3.50
2022-11-24T23:18:27.576Z,3.53
2022-11-24T23:20:30.041Z,4.15
2022-11-24T23:22:35.209Z,4.07
2022-11-24T23:24:38.335Z,4.15
2022-11-24T23:26:41.644Z,3.53
2022-11-24T23:28:44.008Z,3.65
2022-11-24T23:30:46.358Z,4.72
2022-11-24T23:32:48.614Z,4.75
2022-11-24T23:34:51.747Z,4.28
2022-11-24T23:36:54.038Z,4.60
2022-11-24T23:39:02.204Z,3.80
2022-11-24T23:41:16.266Z,4.32
2022-11-24T23:43:18.611Z,4.32
2022-11-24T23:45:20.978Z,4.75
2022-11-24T23:47:23.269Z,3.85
2022-11-24T23:49:25.670Z,5.07
2022-11-24T23:51:29.626Z,4.45
2022-11-24T23:53:32.405Z,4.25
2022-11-24T23:55:37.581Z,4.35
2022-11-24T23:57:39.907Z,5.50
2022-11-24T23:59:42.399Z,4.03
